Flight Track Log - Related Links

Times and Time Zones

All times are in EDT time to prevent confusion due to time zone crossing. See the DAL1515 flight status page for this flight to view local times or setup timezone preferences in your user account.

Time Position Orientation Groundspeed Altitude Reporting Facility
EDT Latitude Longitude Course Direction KTS MPH feet Rate Location/Type
Fri 10:18:35 PM 33.6500 -84.4667 11° North 165 190 2,400  Level Atlanta TRACON
Fri 10:19:35 PM 33.6667 -84.5333 287° West 239 275 3,500 1,950 Climbing Atlanta TRACON
Fri 10:20:35 PM 33.7167 -84.5833 320° Northwest 273 314 6,300 2,700 Climbing Atlanta TRACON
Fri 10:21:00 PM 33.9610 -84.2667 North  Level FlightAware Approximate
Fri 10:21:35 PM 33.8000 -84.5833 360° North 277 319 8,900  Level Atlanta TRACON
Fri 10:22:00 PM 34.0914 -84.2667 North  Level FlightAware Approximate
Fri 10:22:57 PM 33.9036 -84.5794 North 299 344 10,900  Level Atlanta Center
Fri 10:23:00 PM 34.2218 -84.2667 North  Level FlightAware Approximate
Fri 10:23:57 PM 34.0061 -84.5700 North 342 394 12,500  Level Atlanta Center
Fri 10:24:00 PM 34.3509 -84.2505 11° North  Level FlightAware Approximate
Fri 10:24:57 PM 34.0917 -84.5656 North 352 405 15,800  Level Atlanta Center
Fri 10:25:57 PM 34.2022 -84.5611 North 352 405 18,700 2,150 Climbing Atlanta Center
Fri 10:26:57 PM 34.2878 -84.5517 North 344 396 20,100 1,300 Climbing Atlanta Center
Fri 10:27:57 PM 34.3903 -84.5397 North 350 403 21,300 1,100 Climbing Atlanta Center
Fri 10:28:57 PM 34.4925 -84.5025 17° North 365 420 22,300 900 Climbing Atlanta Center
Fri 10:29:57 PM 34.6033 -84.4578 18° North 400 460 23,100 850 Climbing Atlanta Center
Fri 10:30:57 PM 34.7203 -84.4078 19° North 431 496 24,000 1,000 Climbing Atlanta Center
Fri 10:31:57 PM 34.8519 -84.3500 20° North 445 512 25,100 1,300 Climbing Atlanta Center
Fri 10:32:57 PM 34.9586 -84.3050 19° North 452 520 26,600 1,350 Climbing Atlanta Center
Fri 10:33:57 PM 35.0775 -84.2519 20° North 452 520 27,800 1,150 Climbing Atlanta Center
Fri 10:34:57 PM 35.1986 -84.2014 19° North 447 514 28,900 600 Climbing Atlanta Center
Fri 10:35:57 PM 35.3219 -84.1483 19° North 447 514 29,000 150 Climbing Atlanta Center
Fri 10:36:57 PM 35.4428 -84.0975 19° North 452 520 29,200 800 Climbing Atlanta Center
Fri 10:37:57 PM 35.5639 -84.0439 20° North 452 520 30,600 1,150 Climbing Atlanta Center
Fri 10:38:57 PM 35.6828 -83.9928 19° North 452 520 31,500 750 Climbing Atlanta Center
Fri 10:39:57 PM 35.8039 -83.9414 19° North 452 520 32,100 700 Climbing Atlanta Center
Fri 10:40:57 PM 35.9247 -83.8822 22° Northeast 452 520 32,900 289 Climbing Atlanta Center
Fri 10:43:04 PM 36.1786 -83.7211 27° Northeast 471 542 33,000 32 Climbing Indianapolis Center
Fri 10:44:05 PM 36.2956 -83.6461 27° Northeast 475 547 33,000  Level Indianapolis Center
Fri 10:45:06 PM 36.4117 -83.5714 27° Northeast 472 543 33,000  Level Indianapolis Center
Fri 10:46:07 PM 36.5228 -83.5008 27° Northeast 476 548 33,000  Level Indianapolis Center
Fri 10:47:09 PM 36.6586 -83.4053 29° Northeast 482 555 33,000  Level Indianapolis Center
Fri 10:48:10 PM 36.7661 -83.3033 37° Northeast 483 556 33,000 -393 Level Indianapolis Center
Fri 10:49:11 PM 36.8753 -83.2003 37° Northeast 489 563 32,200 -984 Descending Indianapolis Center
Fri 10:50:12 PM 36.9786 -83.0906 40° Northeast 482 555 31,000 -585 Descending Indianapolis Center
Fri 10:51:14 PM 37.0747 -82.9578 48° Northeast 503 579 31,000  Level Indianapolis Center
Fri 10:52:15 PM 37.1689 -82.8250 48° Northeast 500 575 31,000  Level Indianapolis Center
Fri 10:53:16 PM 37.2617 -82.6947 48° Northeast 501 577 31,000  Level Indianapolis Center
Fri 10:54:18 PM 37.3561 -82.5622 48° Northeast 507 583 31,000  Level Indianapolis Center
Fri 10:55:19 PM 37.4497 -82.4314 48° Northeast 504 580 31,000  Level Indianapolis Center
Fri 10:56:20 PM 37.5447 -82.2975 48° Northeast 509 586 31,000  Level Indianapolis Center
Fri 10:57:21 PM 37.6381 -82.1608 49° Northeast 511 588 31,000  Level Indianapolis Center
Fri 10:58:23 PM 37.7306 -82.0258 49° Northeast 509 586 31,000  Level Indianapolis Center
Fri 10:59:24 PM 37.8369 -81.8761 48° Northeast 513 590 31,000  Level Indianapolis Center
Fri 11:00:25 PM 37.9306 -81.7392 49° Northeast 515 593 31,000  Level Indianapolis Center
Fri 11:01:27 PM 38.0247 -81.6028 49° Northeast 515 593 31,000  Level Indianapolis Center
Fri 11:02:28 PM 38.1175 -81.4636 50° Northeast 519 597 31,000  Level Indianapolis Center
Fri 11:03:30 PM 38.2117 -81.3247 49° Northeast 521 600 31,000  Level Indianapolis Center
Fri 11:04:32 PM 38.3064 -81.1847 49° Northeast 526 605 31,000  Level Indianapolis Center
Fri 11:05:33 PM 38.4183 -81.0172 50° Northeast 523 602 31,000  Level Indianapolis Center
Fri 11:06:34 PM 38.5125 -80.8764 49° Northeast 524 603 31,000  Level Indianapolis Center
Fri 11:07:36 PM 38.6064 -80.7347 50° Northeast 525 604 31,000  Level Indianapolis Center
Fri 11:08:37 PM 38.7022 -80.5922 49° Northeast 528 608 31,000  Level Indianapolis Center
Fri 11:09:38 PM 38.7967 -80.4503 49° Northeast 527 606 31,000  Level Indianapolis Center
Fri 11:10:40 PM 38.8928 -80.3058 49° Northeast 532 612 31,000  Level Indianapolis Center
Fri 11:11:41 PM 38.9869 -80.1614 50° Northeast 529 609 31,000 -49 Level Indianapolis Center
Fri 11:12:43 PM 39.0892 -80.0072 49° Northeast 529 609 30,900  Descending Indianapolis Center
Fri 11:13:44 PM 39.1767 -79.8708 50° Northeast 531 611 31,000 62 Climbing Indianapolis Center
Fri 11:14:20 PM 39.2431 -79.7736 49° Northeast 531 611 31,000  Level Cleveland Center
Fri 11:15:20 PM 39.3358 -79.6303 50° Northeast 526 605 31,000  Level Cleveland Center
Fri 11:16:20 PM 39.4303 -79.4811 51° Northeast 526 605 31,000  Level Cleveland Center
Fri 11:17:20 PM 39.5206 -79.3400 50° Northeast 526 605 31,000  Level Cleveland Center
Fri 11:18:20 PM 39.6147 -79.1925 50° Northeast 526 605 31,000  Level Cleveland Center
Fri 11:19:20 PM 39.7108 -79.0422 50° Northeast 526 605 31,000  Level Cleveland Center
Fri 11:20:20 PM 39.8003 -78.8942 52° Northeast 526 605 31,000  Level Cleveland Center
Fri 11:21:20 PM 39.8939 -78.7431 51° Northeast 526 605 31,000  Level Cleveland Center
Fri 11:22:20 PM 39.9892 -78.5914 51° Northeast 532 612 31,000  Level Cleveland Center
Fri 11:23:20 PM 40.0803 -78.4422 51° Northeast 532 612 31,000  Level Cleveland Center
Fri 11:25:37 PM 40.2997 -78.0844 51° Northeast 548 631 31,000  Level New York Center
Fri 11:26:37 PM 40.3922 -77.9358 51° Northeast 543 625 31,000  Level New York Center
Fri 11:27:38 PM 40.4847 -77.7844 51° Northeast 536 617 31,000  Level New York Center
Fri 11:28:36 PM 40.5678 -77.6453 52° Northeast 536 617 31,000  Level New York Center
Fri 11:29:37 PM 40.6578 -77.4956 52° Northeast 531 611 31,000  Level New York Center
Fri 11:30:38 PM 40.7497 -77.3431 51° Northeast 531 611 31,000  Level New York Center
Fri 11:31:36 PM 40.8392 -77.1950 51° Northeast 525 604 31,000 -508 Level New York Center
Fri 11:32:36 PM 40.9286 -77.0414 52° Northeast 525 604 30,000 -1,190 Descending New York Center
Fri 11:33:37 PM 41.0200 -76.8903 51° Northeast 525 604 28,600 -1,513 Descending New York Center
Fri 11:34:35 PM 41.1092 -76.7358 53° Northeast 525 604 27,000 -1,513 Descending New York Center
Fri 11:35:36 PM 41.2000 -76.5811 52° Northeast 525 604 25,600 -984 Descending New York Center
Fri 11:36:37 PM 41.2886 -76.4286 52° Northeast 525 604 25,000 -298 Descending New York Center
Fri 11:37:37 PM 41.3864 -76.2569 53° Northeast 535 616 25,000  Level New York Center
Fri 11:38:37 PM 41.4767 -76.1011 52° Northeast 535 616 25,000 -269 Level New York Center
Fri 11:40:13 PM 41.6236 -75.8478 52° Northeast 538 619 24,300 -385 Descending Boston Center
Fri 11:41:13 PM 41.7094 -75.6939 53° Northeast 526 605 24,000 -150 Descending Boston Center
Fri 11:42:13 PM 41.7950 -75.5422 53° Northeast 514 592 24,000  Level Boston Center
Fri 11:43:13 PM 41.8806 -75.3931 52° Northeast 509 586 24,000  Level Boston Center
Fri 11:44:13 PM 41.9636 -75.2406 54° Northeast 509 586 24,000 -500 Level Boston Center
Fri 11:45:13 PM 42.0464 -75.0933 53° Northeast 509 586 23,000 -1,650 Descending Boston Center
Fri 11:46:13 PM 42.1200 -74.9650 52° Northeast 496 571 20,700 -3,339 Descending Boston Center
Fri 11:47:08 PM 42.1939 -74.8250 55° Northeast 438 504 16,600 -3,692 Descending Boston Center
Fri 11:47:44 PM 42.2331 -74.7564 52° Northeast 428 493 15,100 -2,598 Descending Boston Center
Fri 11:48:45 PM 42.3064 -74.6214 54° Northeast 411 473 12,400 -2,016 Descending Boston Center
Fri 11:49:46 PM 42.3733 -74.4972 54° Northeast 404 465 11,000 -744 Descending Boston Center
Fri 11:50:46 PM 42.4275 -74.3781 58° Northeast 363 418 10,900 -182 Descending Boston Center
Fri 11:51:25 PM 42.4411 -74.3250 71° East 370 426 10,700 -1,091 Descending Boston Center
Fri 11:52:25 PM 42.4703 -74.1881 74° East 322 371 9,100 -1,700 Descending Boston Center
Fri 11:53:25 PM 42.4906 -74.0928 74° East 295 339 7,300 -1,950 Descending Boston Center
Fri 11:54:25 PM 42.5150 -73.9781 74° East 295 339 5,200 -1,700 Descending Boston Center
Fri 11:55:25 PM 42.5372 -73.8828 72° East 290 334 3,900 -955 Descending Boston Center
Fri 11:56:37 PM 42.5756 -73.8131 53° Northeast 220 253 3,100 -682 Descending Boston Center
Fri 11:57:37 PM 42.6319 -73.8031 North 178 205 2,400 -700 Descending Boston Center

Login

Don't have an account? Register now (free) for customized features, flight alerts, and more!